createdAt,value
2018-12-11T00:00:15.407Z,4.29
2018-12-11T00:01:15.397Z,4.33
2018-12-11T00:02:15.382Z,4.29
2018-12-11T00:03:15.372Z,4.28
2018-12-11T00:04:15.377Z,4.39
2018-12-11T00:05:15.348Z,4.33
2018-12-11T00:06:15.342Z,4.32
2018-12-11T00:07:15.326Z,4.29
2018-12-11T00:08:15.315Z,4.28
2018-12-11T00:09:15.321Z,4.29
2018-12-11T00:10:15.296Z,4.32
2018-12-11T00:11:15.281Z,4.32
2018-12-11T00:12:15.268Z,4.28
2018-12-11T00:13:15.255Z,4.33
2018-12-11T00:14:15.267Z,4.34
2018-12-11T00:15:15.243Z,4.22
2018-12-11T00:16:15.220Z,4.33
2018-12-11T00:17:15.216Z,4.32
2018-12-11T00:18:15.197Z,4.25
2018-12-11T00:19:15.211Z,4.18
2018-12-11T00:20:15.174Z,4.16
2018-12-11T00:21:15.170Z,4.22
2018-12-11T00:22:15.167Z,4.24
2018-12-11T00:23:15.143Z,4.16
2018-12-11T00:24:15.129Z,4.15
2018-12-11T00:25:15.141Z,4.06
2018-12-11T00:26:15.105Z,4.08
2018-12-11T00:27:15.106Z,3.98
2018-12-11T00:28:15.083Z,3.97
2018-12-11T00:29:15.071Z,4.01
2018-12-11T00:30:15.076Z,4.03
2018-12-11T00:31:15.047Z,4.10
2018-12-11T00:32:15.039Z,4.07
2018-12-11T00:33:15.037Z,4.01
2018-12-11T00:34:15.018Z,3.94
2018-12-11T00:35:15.026Z,4.01
2018-12-11T00:36:14.989Z,3.89
2018-12-11T00:37:14.982Z,4.00
2018-12-11T00:38:14.967Z,3.88
2018-12-11T00:39:14.955Z,3.89
2018-12-11T00:40:14.967Z,3.85
2018-12-11T00:41:14.941Z,3.88
2018-12-11T00:42:14.927Z,3.86
2018-12-11T00:43:14.913Z,3.78
2018-12-11T00:44:14.896Z,3.65
2018-12-11T00:45:14.937Z,3.62
2018-12-11T00:46:14.876Z,3.60
2018-12-11T00:47:14.864Z,3.61
2018-12-11T00:48:14.853Z,3.60
2018-12-11T00:49:14.840Z,3.46
2018-12-11T00:50:14.830Z,3.50
2018-12-11T00:51:14.850Z,3.42
2018-12-11T00:52:14.809Z,3.52
2018-12-11T00:53:14.798Z,3.30
2018-12-11T00:54:14.782Z,3.46
2018-12-11T00:55:14.769Z,3.42
2018-12-11T00:56:14.782Z,3.39
2018-12-11T00:57:14.752Z,3.39
2018-12-11T00:58:14.737Z,3.36
2018-12-11T00:59:14.725Z,3.44
2018-12-11T01:00:14.736Z,3.39
2018-12-11T01:01:14.724Z,3.30
2018-12-11T01:02:14.692Z,3.47
2018-12-11T01:03:14.679Z,3.42
2018-12-11T01:04:14.673Z,3.31
2018-12-11T01:05:14.655Z,3.36
2018-12-11T01:06:14.683Z,3.46
2018-12-11T01:07:14.635Z,3.43
2018-12-11T01:08:14.630Z,3.47
2018-12-11T01:09:14.612Z,3.50
2018-12-11T01:10:14.598Z,3.40
2018-12-11T01:11:14.591Z,3.39
2018-12-11T01:12:14.592Z,3.44
2018-12-11T01:13:14.573Z,3.52
2018-12-11T01:14:14.556Z,3.42
2018-12-11T01:15:14.542Z,3.52
2018-12-11T01:16:14.528Z,3.36
2018-12-11T01:17:14.536Z,3.52
2018-12-11T01:18:14.506Z,3.44
2018-12-11T01:19:14.495Z,3.39
2018-12-11T01:20:14.482Z,3.46
2018-12-11T01:21:14.469Z,3.40
2018-12-11T01:22:14.478Z,3.43
2018-12-11T01:23:14.447Z,3.40
2018-12-11T01:24:14.436Z,3.33
2018-12-11T01:25:14.425Z,3.25
2018-12-11T01:26:14.413Z,3.20
2018-12-11T01:27:14.422Z,3.24
2018-12-11T01:28:14.393Z,3.21
2018-12-11T01:29:14.398Z,3.30
2018-12-11T01:30:14.366Z,3.28
2018-12-11T01:31:14.359Z,3.20
2018-12-11T01:32:14.377Z,3.27
2018-12-11T01:33:14.333Z,3.18
2018-12-11T01:34:14.323Z,3.23
2018-12-11T01:35:14.337Z,3.25
2018-12-11T01:36:14.302Z,3.20
2018-12-11T01:37:14.286Z,3.24
2018-12-11T01:38:14.294Z,3.39
2018-12-11T01:39:14.265Z,3.30
2018-12-11T01:40:14.258Z,3.42
2018-12-11T01:41:14.240Z,3.31
2018-12-11T01:42:14.249Z,3.44
2018-12-11T01:43:14.218Z,3.47
2018-12-11T01:44:14.209Z,3.42
2018-12-11T01:45:14.195Z,3.44
2018-12-11T01:46:14.190Z,3.46
2018-12-11T01:47:14.611Z,3.53
2018-12-11T01:48:14.161Z,3.60
2018-12-11T01:49:14.151Z,3.57
2018-12-11T01:50:14.137Z,3.53
2018-12-11T01:51:14.126Z,3.50
2018-12-11T01:52:14.116Z,3.52
2018-12-11T01:53:14.125Z,3.61
2018-12-11T01:54:14.094Z,3.47
2018-12-11T01:55:14.078Z,3.54
2018-12-11T01:56:14.069Z,3.53
2018-12-11T01:57:14.057Z,3.47
2018-12-11T01:58:14.067Z,3.47
2018-12-11T01:59:14.039Z,3.43
2018-12-11T02:00:14.025Z,3.39
2018-12-11T02:01:14.012Z,3.46
2018-12-11T02:02:14.005Z,3.49
2018-12-11T02:03:14.014Z,3.40
2018-12-11T02:04:13.976Z,3.47
2018-12-11T02:05:13.978Z,3.40
2018-12-11T02:06:13.954Z,3.49
2018-12-11T02:07:13.946Z,3.36
2018-12-11T02:08:13.953Z,3.44
2018-12-11T02:09:13.918Z,3.44
2018-12-11T02:10:13.913Z,3.47
2018-12-11T02:11:13.895Z,3.49
2018-12-11T02:12:13.884Z,3.42
2018-12-11T02:13:13.913Z,3.49
2018-12-11T02:14:13.863Z,3.53
2018-12-11T02:15:13.851Z,3.58
2018-12-11T02:16:13.840Z,3.57
2018-12-11T02:17:13.827Z,3.50
2018-12-11T02:18:13.818Z,3.61
2018-12-11T02:19:13.821Z,3.64
2018-12-11T02:20:13.792Z,3.57
2018-12-11T02:21:13.780Z,3.70
2018-12-11T02:22:13.769Z,3.65
2018-12-11T02:23:13.758Z,3.71
2018-12-11T02:24:13.766Z,3.65
2018-12-11T02:25:13.734Z,3.68
2018-12-11T02:26:13.727Z,3.72
2018-12-11T02:27:13.713Z,3.76
2018-12-11T02:28:13.726Z,3.72
2018-12-11T02:29:13.690Z,3.85
2018-12-11T02:30:13.680Z,3.79
2018-12-11T02:31:13.667Z,3.89
2018-12-11T02:32:13.655Z,3.82
2018-12-11T02:33:13.665Z,3.82
2018-12-11T02:34:13.651Z,3.79
2018-12-11T02:35:13.619Z,3.79
2018-12-11T02:36:13.611Z,3.82
2018-12-11T02:37:13.598Z,3.80
2018-12-11T02:38:13.606Z,3.85
2018-12-11T02:39:13.579Z,3.76
2018-12-11T02:40:13.564Z,3.85
2018-12-11T02:41:13.555Z,3.85
2018-12-11T02:42:13.539Z,3.82
2018-12-11T02:43:13.529Z,3.85
2018-12-11T02:44:13.540Z,3.83
2018-12-11T02:45:13.509Z,3.86
2018-12-11T02:46:13.501Z,3.85
2018-12-11T02:47:13.484Z,3.85
2018-12-11T02:48:13.476Z,3.86
2018-12-11T02:49:13.491Z,3.83
2018-12-11T02:50:13.450Z,3.86
2018-12-11T02:51:13.437Z,3.88
2018-12-11T02:52:13.426Z,3.83
2018-12-11T02:53:13.411Z,3.85
2018-12-11T02:54:13.421Z,3.83
2018-12-11T02:55:13.391Z,3.80
2018-12-11T02:56:13.430Z,3.85
2018-12-11T02:57:13.368Z,3.89
2018-12-11T02:58:13.355Z,3.88
2018-12-11T02:59:13.386Z,3.88
2018-12-11T03:00:13.334Z,3.83
2018-12-11T03:01:13.321Z,3.96
2018-12-11T03:02:13.312Z,3.98
2018-12-11T03:03:13.299Z,3.94
2018-12-11T03:04:13.292Z,3.98
2018-12-11T03:05:13.295Z,3.96
2018-12-11T03:06:13.266Z,4.00
2018-12-11T03:07:13.251Z,4.04
2018-12-11T03:08:13.243Z,4.04
2018-12-11T03:09:13.231Z,4.00
2018-12-11T03:10:13.239Z,4.00
2018-12-11T03:11:13.207Z,3.94
2018-12-11T03:12:13.195Z,4.00
2018-12-11T03:13:13.185Z,3.92
2018-12-11T03:14:13.173Z,3.98
2018-12-11T03:15:13.182Z,3.97
2018-12-11T03:16:13.153Z,4.04
2018-12-11T03:17:13.150Z,3.94
2018-12-11T03:18:13.127Z,3.88
2018-12-11T03:19:13.116Z,4.01
2018-12-11T03:20:13.127Z,3.96
2018-12-11T03:21:13.097Z,3.94
2018-12-11T03:22:13.078Z,4.06
2018-12-11T03:23:13.069Z,4.00
2018-12-11T03:24:13.058Z,3.98
2018-12-11T03:25:13.044Z,3.98
2018-12-11T03:26:13.057Z,4.07
2018-12-11T03:27:13.023Z,3.94
2018-12-11T03:28:13.008Z,3.97
2018-12-11T03:29:12.999Z,4.06
2018-12-11T03:30:12.987Z,4.03
2018-12-11T03:31:13.030Z,4.03
2018-12-11T03:32:12.966Z,4.03
2018-12-11T03:33:12.957Z,4.03
2018-12-11T03:34:12.942Z,4.08
2018-12-11T03:35:12.931Z,4.04
2018-12-11T03:36:12.939Z,4.06
2018-12-11T03:37:12.909Z,4.10
2018-12-11T03:38:12.902Z,4.06
2018-12-11T03:39:12.883Z,4.14
2018-12-11T03:41:16.257Z,4.04
2018-12-11T03:42:16.226Z,4.00
2018-12-11T03:43:16.216Z,4.03
2018-12-11T03:44:16.201Z,4.10
2018-12-11T03:45:16.194Z,4.04
2018-12-11T03:46:16.178Z,4.06
2018-12-11T03:47:16.199Z,4.06
2018-12-11T03:48:16.156Z,4.08
2018-12-11T03:49:16.149Z,4.12
2018-12-11T03:50:16.135Z,4.14
2018-12-11T03:51:16.123Z,4.04
2018-12-11T03:52:21.345Z,3.97
2018-12-11T03:53:17.097Z,4.03
2018-12-11T03:54:16.090Z,4.06
2018-12-11T03:55:16.079Z,4.12
2018-12-11T03:56:16.065Z,4.18
2018-12-11T03:57:16.072Z,4.01
2018-12-11T03:58:16.044Z,4.03
2018-12-11T03:59:16.031Z,4.03
2018-12-11T04:00:16.020Z,4.01
2018-12-11T04:01:16.009Z,4.04
2018-12-11T04:02:16.017Z,4.15
2018-12-11T04:03:15.991Z,4.03
2018-12-11T04:04:15.975Z,4.14
2018-12-11T04:05:15.961Z,4.21
2018-12-11T04:06:15.950Z,4.18
2018-12-11T04:07:15.960Z,4.06
2018-12-11T04:08:15.927Z,4.22
2018-12-11T04:09:15.917Z,4.15
2018-12-11T04:10:15.908Z,4.24
2018-12-11T04:11:15.897Z,4.18
2018-12-11T04:12:15.922Z,4.21
2018-12-11T04:13:15.875Z,4.24
2018-12-11T04:14:15.859Z,4.21
2018-12-11T04:15:15.848Z,4.25
2018-12-11T04:16:15.835Z,4.22
2018-12-11T04:17:15.831Z,4.26
2018-12-11T04:18:15.833Z,4.18
2018-12-11T04:19:15.803Z,4.28
2018-12-11T04:20:15.788Z,4.34
2018-12-11T04:21:15.779Z,4.29
2018-12-11T04:22:15.767Z,4.36
2018-12-11T04:23:15.777Z,4.37
2018-12-11T04:24:15.748Z,4.33
2018-12-11T04:25:15.731Z,4.29
2018-12-11T04:26:15.721Z,4.36
2018-12-11T04:27:15.710Z,4.33
2018-12-11T04:28:15.699Z,4.22
2018-12-11T04:29:15.704Z,4.33
2018-12-11T04:30:15.677Z,4.33
2018-12-11T04:31:15.664Z,4.33
2018-12-11T04:32:15.653Z,4.32
2018-12-11T04:33:15.643Z,4.26
2018-12-11T04:34:15.651Z,4.28
2018-12-11T04:35:15.618Z,4.36
2018-12-11T04:36:15.605Z,4.32
2018-12-11T04:37:15.594Z,4.33
2018-12-11T04:38:15.581Z,4.36
2018-12-11T04:39:15.598Z,4.28
2018-12-11T04:40:15.559Z,4.42
2018-12-11T04:41:15.548Z,4.32
2018-12-11T04:42:15.537Z,4.28
2018-12-11T04:43:15.526Z,4.29
2018-12-11T04:44:15.532Z,4.29
2018-12-11T04:45:15.504Z,4.37
2018-12-11T04:46:15.490Z,4.26
2018-12-11T04:47:15.480Z,4.28
2018-12-11T04:48:15.470Z,4.33
2018-12-11T04:49:15.480Z,4.34
2018-12-11T04:50:15.447Z,4.36
2018-12-11T04:51:15.436Z,4.26
2018-12-11T04:52:15.427Z,4.33
2018-12-11T04:53:15.411Z,4.34
2018-12-11T04:54:15.407Z,4.28
2018-12-11T04:55:15.418Z,4.34
2018-12-11T04:56:15.378Z,4.36
2018-12-11T04:57:15.367Z,4.34
2018-12-11T04:58:15.354Z,4.33
2018-12-11T04:59:15.345Z,4.36
2018-12-11T05:00:15.351Z,4.22
2018-12-11T05:01:15.320Z,4.29
2018-12-11T05:02:15.311Z,4.26
2018-12-11T05:03:15.300Z,4.22
2018-12-11T05:04:15.286Z,4.18
2018-12-11T05:05:15.299Z,4.26
2018-12-11T05:06:15.264Z,4.21
2018-12-11T05:07:15.253Z,4.18
2018-12-11T05:08:15.245Z,4.18
2018-12-11T05:09:15.230Z,4.24
2018-12-11T05:10:15.218Z,4.33
2018-12-11T05:11:15.224Z,4.24
2018-12-11T05:12:15.194Z,4.22
2018-12-11T05:13:15.185Z,4.21
2018-12-11T05:14:15.171Z,4.22
2018-12-11T05:15:15.159Z,4.29
2018-12-11T05:16:15.170Z,4.32
2018-12-11T05:17:15.139Z,4.33
2018-12-11T05:18:15.126Z,4.22
2018-12-11T05:19:15.115Z,4.33
2018-12-11T05:20:15.105Z,4.21
2018-12-11T05:21:15.113Z,4.24
2018-12-11T05:22:15.082Z,4.18
2018-12-11T05:23:15.070Z,4.08
2018-12-11T05:24:15.057Z,4.14
2018-12-11T05:25:15.047Z,4.04
2018-12-11T05:26:15.055Z,4.08
2018-12-11T05:27:15.024Z,4.04
2018-12-11T05:28:15.011Z,4.01
2018-12-11T05:29:15.001Z,4.00
2018-12-11T05:30:14.989Z,4.01
2018-12-11T05:31:14.997Z,4.01
2018-12-11T05:32:14.968Z,4.01
2018-12-11T05:33:14.957Z,4.07
2018-12-11T05:34:14.943Z,4.06
2018-12-11T05:35:14.933Z,4.04
2018-12-11T05:36:14.944Z,3.98
2018-12-11T05:37:14.910Z,3.96
2018-12-11T05:38:14.901Z,3.89
2018-12-11T05:39:14.887Z,3.92
2018-12-11T05:40:14.875Z,3.82
2018-12-11T05:41:14.864Z,3.83
2018-12-11T05:42:14.870Z,3.76
2018-12-11T05:43:14.843Z,3.68
2018-12-11T05:44:14.831Z,3.68
2018-12-11T05:45:14.818Z,3.71
2018-12-11T05:46:14.808Z,3.70
2018-12-11T05:47:14.814Z,3.60
2018-12-11T05:48:14.783Z,3.62
2018-12-11T05:49:14.772Z,3.49
2018-12-11T05:50:14.760Z,3.60
2018-12-11T05:51:14.748Z,3.52
2018-12-11T05:52:14.755Z,3.52
2018-12-11T05:53:14.731Z,3.70
2018-12-11T05:54:14.714Z,3.57
2018-12-11T05:55:14.701Z,3.57
2018-12-11T05:56:14.692Z,3.60
2018-12-11T05:57:14.701Z,3.64
2018-12-11T05:58:14.666Z,3.58
2018-12-11T05:59:14.658Z,3.49
2018-12-11T06:00:14.644Z,3.50
2018-12-11T06:01:14.633Z,3.53
2018-12-11T06:02:14.623Z,3.44
2018-12-11T06:03:14.631Z,3.39
2018-12-11T06:04:14.597Z,3.42
2018-12-11T06:05:14.589Z,3.36
2018-12-11T06:06:14.575Z,3.33
2018-12-11T06:07:14.562Z,3.40
2018-12-11T06:08:14.574Z,3.28
2018-12-11T06:09:14.540Z,3.24
2018-12-11T06:10:14.527Z,3.18
2018-12-11T06:11:14.517Z,3.21
2018-12-11T06:12:14.506Z,3.24
2018-12-11T06:13:14.513Z,3.24
2018-12-11T06:14:14.484Z,3.27
2018-12-11T06:15:14.470Z,3.31
2018-12-11T06:16:14.459Z,3.34
2018-12-11T06:17:14.449Z,3.28
2018-12-11T06:18:14.463Z,3.31
2018-12-11T06:19:14.426Z,3.31
2018-12-11T06:20:14.420Z,3.44
2018-12-11T06:21:14.401Z,3.40
2018-12-11T06:22:14.391Z,3.40
2018-12-11T06:23:14.381Z,3.44
2018-12-11T06:24:14.395Z,3.46
2018-12-11T06:25:14.362Z,3.44
2018-12-11T06:26:14.345Z,3.43
2018-12-11T06:27:14.335Z,3.52
2018-12-11T06:28:14.324Z,3.42
2018-12-11T06:29:14.332Z,3.50
2018-12-11T06:30:14.299Z,3.52
2018-12-11T06:31:14.288Z,3.53
2018-12-11T06:32:14.282Z,3.53
2018-12-11T06:33:14.266Z,3.50
2018-12-11T06:34:14.274Z,3.57
2018-12-11T06:35:14.241Z,3.47
2018-12-11T06:36:14.231Z,3.43
2018-12-11T06:37:14.219Z,3.44
2018-12-11T06:38:14.207Z,3.53
2018-12-11T06:39:14.219Z,3.30
2018-12-11T06:40:14.184Z,3.39
2018-12-11T06:41:14.172Z,3.40
2018-12-11T06:42:14.163Z,3.28
2018-12-11T06:43:14.148Z,3.34
2018-12-11T06:44:14.139Z,3.34
2018-12-11T06:45:14.148Z,3.33
2018-12-11T06:46:14.114Z,3.27
2018-12-11T06:47:14.104Z,3.28
2018-12-11T06:48:14.092Z,3.15
2018-12-11T06:50:44.919Z,3.33
2018-12-11T06:51:44.906Z,3.31
2018-12-11T06:52:44.882Z,3.33
2018-12-11T06:53:44.869Z,3.25
2018-12-11T06:54:44.859Z,3.34
2018-12-11T06:55:44.867Z,3.28
2018-12-11T06:56:44.839Z,3.23
2018-12-11T06:57:44.826Z,3.24
2018-12-11T06:58:44.815Z,3.24
2018-12-11T06:59:44.803Z,3.16
2018-12-11T07:00:44.810Z,3.21
2018-12-11T07:01:44.779Z,3.18
2018-12-11T07:02:44.767Z,3.27
2018-12-11T07:03:44.758Z,3.15
2018-12-11T07:04:44.745Z,3.18
2018-12-11T07:05:44.819Z,3.21
2018-12-11T07:06:44.728Z,3.23
2018-12-11T07:07:44.721Z,3.28
2018-12-11T07:08:44.701Z,3.20
2018-12-11T07:09:44.690Z,3.31
2018-12-11T07:10:44.694Z,3.31
2018-12-11T07:11:44.669Z,3.49
2018-12-11T07:12:44.655Z,3.46
2018-12-11T07:13:44.642Z,3.42
2018-12-11T07:14:44.635Z,3.50
2018-12-11T07:15:44.643Z,3.47
2018-12-11T07:16:44.608Z,3.49
2018-12-11T07:17:44.599Z,3.50
2018-12-11T07:18:44.586Z,3.57
2018-12-11T07:19:44.574Z,3.49
2018-12-11T07:20:44.562Z,3.54
2018-12-11T07:21:44.571Z,3.44
2018-12-11T07:22:44.542Z,3.49
2018-12-11T07:23:44.527Z,3.62
2018-12-11T07:24:44.516Z,3.52
2018-12-11T07:25:44.505Z,3.49
2018-12-11T07:26:44.514Z,3.58
2018-12-11T07:27:44.483Z,3.54
2018-12-11T07:28:44.470Z,3.61
2018-12-11T07:29:44.464Z,3.65
2018-12-11T07:30:44.450Z,3.60
2018-12-11T07:31:44.480Z,3.67
2018-12-11T07:32:44.431Z,3.70
2018-12-11T07:33:50.661Z,3.79
2018-12-11T07:34:45.402Z,3.85
2018-12-11T07:35:44.392Z,3.88
2018-12-11T07:36:44.380Z,3.96
2018-12-11T07:37:44.387Z,3.92
2018-12-11T07:38:44.356Z,3.88
2018-12-11T07:39:44.348Z,3.90
2018-12-11T07:40:44.334Z,3.92
2018-12-11T07:41:44.324Z,3.96
2018-12-11T07:42:44.331Z,3.94
2018-12-11T07:43:44.303Z,3.94
2018-12-11T07:44:44.289Z,3.86
2018-12-11T07:45:44.277Z,3.83
2018-12-11T07:46:44.267Z,3.86
2018-12-11T07:47:44.273Z,3.89
2018-12-11T07:48:44.243Z,3.90
2018-12-11T07:49:44.230Z,3.85
2018-12-11T07:50:44.222Z,3.88
2018-12-11T07:51:44.210Z,3.86
2018-12-11T07:52:44.227Z,3.80
2018-12-11T07:53:44.185Z,3.88
2018-12-11T07:54:44.173Z,3.89
2018-12-11T07:55:44.163Z,3.79
2018-12-11T07:56:44.148Z,3.94
2018-12-11T07:57:44.138Z,3.83
2018-12-11T07:58:44.145Z,3.80
2018-12-11T07:59:44.115Z,3.85
2018-12-11T08:00:44.105Z,3.80
2018-12-11T08:01:44.093Z,3.79
2018-12-11T08:02:44.083Z,3.85
2018-12-11T08:03:44.088Z,3.85
2018-12-11T08:04:44.058Z,3.79
2018-12-11T08:05:44.047Z,3.79
2018-12-11T08:06:44.034Z,3.83
2018-12-11T08:07:44.024Z,3.80
2018-12-11T08:08:44.029Z,3.78
2018-12-11T08:09:43.999Z,3.96
2018-12-11T08:10:43.992Z,3.89
2018-12-11T08:11:43.978Z,4.04
2018-12-11T08:12:43.968Z,4.03
2018-12-11T08:13:43.995Z,4.01
2018-12-11T08:14:43.944Z,4.21
2018-12-11T08:15:43.933Z,4.22
2018-12-11T08:16:43.920Z,4.16
2018-12-11T08:17:43.908Z,4.22
2018-12-11T08:18:43.896Z,4.24
2018-12-11T08:19:43.903Z,4.37
2018-12-11T08:20:43.873Z,4.42
2018-12-11T08:21:43.863Z,4.32
2018-12-11T08:22:43.850Z,4.43
2018-12-11T08:23:43.841Z,4.46
2018-12-11T08:24:43.848Z,4.44
2018-12-11T08:25:43.815Z,4.57
2018-12-11T08:26:43.805Z,4.57
2018-12-11T08:27:43.793Z,4.62
2018-12-11T08:28:43.781Z,4.69
2018-12-11T08:29:43.768Z,4.64
2018-12-11T08:30:43.778Z,4.62
2018-12-11T08:31:43.747Z,4.76
2018-12-11T08:32:43.734Z,4.76
2018-12-11T08:33:43.727Z,4.80
2018-12-11T08:34:43.712Z,4.92
2018-12-11T08:35:43.719Z,4.89
2018-12-11T08:36:43.691Z,5.04
2018-12-11T08:37:43.677Z,4.92
2018-12-11T08:38:43.666Z,4.92
2018-12-11T08:39:43.653Z,4.99
2018-12-11T08:40:43.665Z,5.07
2018-12-11T08:41:43.634Z,5.09
2018-12-11T08:42:43.623Z,5.31
2018-12-11T08:43:43.609Z,5.28
2018-12-11T08:44:43.597Z,5.41
2018-12-11T08:45:43.604Z,5.35
2018-12-11T08:46:43.576Z,5.46
2018-12-11T08:47:43.567Z,5.49
2018-12-11T08:48:43.553Z,5.43
2018-12-11T08:49:43.542Z,5.40
2018-12-11T08:50:43.549Z,5.48
2018-12-11T08:51:43.517Z,5.55
2018-12-11T08:52:43.507Z,5.56
2018-12-11T08:53:43.497Z,5.43
2018-12-11T08:54:43.483Z,5.53
2018-12-11T08:55:43.494Z,5.63
2018-12-11T08:56:43.463Z,5.64
2018-12-11T08:57:43.451Z,5.73
2018-12-11T08:58:43.440Z,5.89
2018-12-11T08:59:43.428Z,5.95
2018-12-11T09:00:43.440Z,5.82
2018-12-11T09:01:43.405Z,5.88
2018-12-11T09:02:43.393Z,5.86
2018-12-11T09:03:43.385Z,5.82
2018-12-11T09:04:43.370Z,5.82
2018-12-11T09:05:43.362Z,5.89
2018-12-11T09:06:43.367Z,5.92
2018-12-11T09:07:43.339Z,6.16
2018-12-11T09:08:43.328Z,6.16
2018-12-11T09:09:43.319Z,5.98
2018-12-11T09:10:43.302Z,5.85
2018-12-11T09:11:43.311Z,5.85
2018-12-11T09:12:43.283Z,5.73
2018-12-11T09:13:43.333Z,5.85
2018-12-11T09:14:43.263Z,5.71
2018-12-11T09:15:43.249Z,5.63
2018-12-11T09:16:43.257Z,5.52
2018-12-11T09:17:43.223Z,5.50
2018-12-11T09:18:43.215Z,5.64
2018-12-11T09:19:43.201Z,5.71
2018-12-11T09:20:43.191Z,5.71
2018-12-11T09:21:43.221Z,5.73
2018-12-11T09:22:43.168Z,5.81
2018-12-11T09:23:43.158Z,5.73
2018-12-11T09:24:43.146Z,5.88
2018-12-11T09:25:43.136Z,5.78
2018-12-11T09:26:43.121Z,5.75
2018-12-11T09:27:43.130Z,5.70
2018-12-11T09:28:43.100Z,5.60
2018-12-11T09:29:43.090Z,5.40
2018-12-11T09:30:43.078Z,5.32
2018-12-11T09:31:43.066Z,5.38
2018-12-11T09:32:43.074Z,5.38
2018-12-11T09:33:43.056Z,5.46
2018-12-11T09:34:43.032Z,5.70
2018-12-11T09:35:43.022Z,6.01
2018-12-11T09:36:43.011Z,6.36
2018-12-11T09:37:43.024Z,6.73
2018-12-11T09:38:42.987Z,7.08
2018-12-11T09:39:42.976Z,6.76
2018-12-11T09:40:42.964Z,6.47
2018-12-11T09:41:42.950Z,6.26
2018-12-11T09:42:42.946Z,6.18
2018-12-11T09:43:42.947Z,6.01
2018-12-11T09:44:42.920Z,6.09
2018-12-11T09:45:42.904Z,6.10
2018-12-11T09:46:42.895Z,6.10
2018-12-11T09:47:42.881Z,6.00
2018-12-11T09:48:42.886Z,5.91
2018-12-11T09:49:42.861Z,5.75
2018-12-11T09:50:42.845Z,5.83
2018-12-11T09:51:42.833Z,5.71
2018-12-11T09:52:42.820Z,5.75
2018-12-11T09:53:42.833Z,5.83
2018-12-11T09:54:42.798Z,5.92
2018-12-11T09:55:42.787Z,6.10
2018-12-11T09:56:42.776Z,6.11
2018-12-11T09:57:42.764Z,6.14
2018-12-11T09:58:42.755Z,6.11
2018-12-11T09:59:42.760Z,6.16
2018-12-11T10:00:42.799Z,6.11
2018-12-11T10:01:42.719Z,5.96
2018-12-11T10:02:42.705Z,5.88
2018-12-11T10:03:42.693Z,5.78
2018-12-11T10:04:42.699Z,5.74
2018-12-11T10:05:42.669Z,5.66
2018-12-11T10:06:42.660Z,5.64
2018-12-11T10:07:42.646Z,5.67
2018-12-11T10:08:42.635Z,5.50
2018-12-11T10:09:42.655Z,5.50
2018-12-11T10:10:42.613Z,5.53
2018-12-11T10:11:42.601Z,5.68
2018-12-11T10:12:42.589Z,5.71
2018-12-11T10:13:42.579Z,5.82
2018-12-11T10:14:42.566Z,5.67
2018-12-11T10:15:42.573Z,5.73
2018-12-11T10:16:42.546Z,5.70
2018-12-11T10:17:42.530Z,5.70
2018-12-11T10:18:42.521Z,5.64
2018-12-11T10:19:42.509Z,5.63
2018-12-11T10:20:42.526Z,5.64
2018-12-11T10:21:42.484Z,5.60
2018-12-11T10:22:42.472Z,5.49
2018-12-11T10:23:42.461Z,5.43
2018-12-11T10:24:42.452Z,5.48
2018-12-11T10:25:42.460Z,5.52
2018-12-11T10:26:42.429Z,5.52
2018-12-11T10:27:42.420Z,5.49
2018-12-11T10:28:42.405Z,5.64
2018-12-11T10:29:42.392Z,5.59
2018-12-11T10:30:42.422Z,5.60
2018-12-11T10:31:42.371Z,5.63
2018-12-11T10:32:42.358Z,5.59
2018-12-11T10:33:42.353Z,5.49
2018-12-11T10:34:42.356Z,5.38
2018-12-11T10:35:42.325Z,5.48
2018-12-11T10:36:42.335Z,5.49
2018-12-11T10:37:42.304Z,5.46
2018-12-11T10:38:42.295Z,5.43
2018-12-11T10:39:42.280Z,5.41
2018-12-11T10:40:42.267Z,5.50
2018-12-11T10:41:42.273Z,5.67
2018-12-11T10:42:42.246Z,5.71
2018-12-11T10:43:42.234Z,5.83
2018-12-11T10:44:42.222Z,5.98
2018-12-11T10:45:42.212Z,5.93
2018-12-11T10:46:42.222Z,6.01
2018-12-11T10:47:42.189Z,6.04
2018-12-11T10:48:42.178Z,6.14
2018-12-11T10:49:42.165Z,6.28
2018-12-11T10:50:42.153Z,6.44
2018-12-11T10:51:42.142Z,6.61
2018-12-11T10:52:42.149Z,6.91
2018-12-11T10:53:42.119Z,7.09
2018-12-11T10:54:42.107Z,7.09
2018-12-11T10:55:42.098Z,7.15
2018-12-11T10:56:42.083Z,7.17
2018-12-11T10:57:42.090Z,7.26
2018-12-11T10:58:42.061Z,7.29
2018-12-11T10:59:42.049Z,8.47
2018-12-11T11:00:42.035Z,8.55
2018-12-11T11:01:42.024Z,8.48
2018-12-11T11:02:42.035Z,9.01
2018-12-11T11:03:42.005Z,10.09
2018-12-11T11:04:41.989Z,10.88
2018-12-11T11:05:41.977Z,11.10
2018-12-11T11:06:41.967Z,11.41
2018-12-11T11:07:41.980Z,11.74
2018-12-11T11:08:41.942Z,12.33
2018-12-11T11:09:41.931Z,12.42
2018-12-11T11:10:41.921Z,12.62
2018-12-11T11:11:42.099Z,12.74
2018-12-11T11:12:41.897Z,13.20
2018-12-11T11:13:41.913Z,13.49
2018-12-11T11:14:41.874Z,13.25
2018-12-11T11:15:41.864Z,12.79
2018-12-11T11:16:41.853Z,12.87
2018-12-11T11:17:41.841Z,12.77
2018-12-11T11:18:41.854Z,12.75
2018-12-11T11:19:41.816Z,12.74
2018-12-11T11:20:41.805Z,12.82
2018-12-11T11:21:41.794Z,12.97
2018-12-11T11:22:41.781Z,13.24
2018-12-11T11:23:41.769Z,13.37
2018-12-11T11:24:41.776Z,13.11
2018-12-11T11:25:41.747Z,13.56
2018-12-11T11:26:41.738Z,14.01
2018-12-11T11:27:41.725Z,14.37
2018-12-11T11:28:41.715Z,13.36
2018-12-11T11:29:41.723Z,11.97
2018-12-11T11:30:41.689Z,11.10
2018-12-11T11:31:41.678Z,10.65
2018-12-11T11:32:41.668Z,9.89
2018-12-11T11:33:41.656Z,9.24
2018-12-11T11:34:41.670Z,9.06
2018-12-11T11:35:41.633Z,8.55
2018-12-11T11:36:41.622Z,8.45
2018-12-11T11:37:41.610Z,8.48
2018-12-11T11:38:41.599Z,8.30
2018-12-11T11:39:41.609Z,8.20
2018-12-11T11:40:41.575Z,8.07
2018-12-11T11:41:41.563Z,7.92
2018-12-11T11:42:41.551Z,7.87
2018-12-11T11:43:41.542Z,7.75
2018-12-11T11:44:41.570Z,7.56
2018-12-11T11:45:41.518Z,7.67
2018-12-11T11:46:41.505Z,7.81
2018-12-11T11:47:41.493Z,7.85
2018-12-11T11:48:41.482Z,7.97
2018-12-11T11:49:41.470Z,7.99
2018-12-11T11:50:41.478Z,7.78
2018-12-11T11:51:41.447Z,7.90
2018-12-11T11:52:41.437Z,7.96
2018-12-11T11:53:41.425Z,7.94
2018-12-11T11:54:41.415Z,8.04
2018-12-11T11:55:41.481Z,8.11
2018-12-11T11:56:41.391Z,8.21
2018-12-11T11:57:41.378Z,8.28
2018-12-11T11:58:41.367Z,8.57
2018-12-11T11:59:41.356Z,8.65
2018-12-11T12:00:41.369Z,8.37
2018-12-11T12:01:41.334Z,8.55
2018-12-11T12:02:41.322Z,8.97
2018-12-11T12:03:41.310Z,9.30
2018-12-11T12:04:41.298Z,9.09
2018-12-11T12:05:41.288Z,9.09
2018-12-11T12:06:41.307Z,9.64
2018-12-11T12:07:41.268Z,9.34
2018-12-11T12:08:41.254Z,9.13
2018-12-11T12:09:41.241Z,8.69
2018-12-11T12:10:41.230Z,8.33
2018-12-11T12:11:41.239Z,8.12
2018-12-11T12:12:41.207Z,7.99
2018-12-11T12:13:41.199Z,7.92
2018-12-11T12:14:41.183Z,7.92
2018-12-11T12:15:41.172Z,7.85
2018-12-11T12:16:41.183Z,7.81
2018-12-11T12:17:41.148Z,7.75
2018-12-11T12:18:41.139Z,7.77
2018-12-11T12:19:41.128Z,7.72
2018-12-11T12:20:41.117Z,7.71
2018-12-11T12:21:41.103Z,7.63
2018-12-11T12:22:41.110Z,7.58
2018-12-11T12:23:41.082Z,7.50
2018-12-11T12:24:41.072Z,7.53
2018-12-11T12:25:41.060Z,7.63
2018-12-11T12:26:41.048Z,7.59
2018-12-11T12:27:41.051Z,7.58
2018-12-11T12:28:41.023Z,7.56
2018-12-11T12:29:41.011Z,7.59
2018-12-11T12:30:41.001Z,7.53
2018-12-11T12:31:40.988Z,7.55
2018-12-11T12:32:40.998Z,7.56
2018-12-11T12:33:40.969Z,7.63
2018-12-11T12:34:40.957Z,7.69
2018-12-11T12:35:40.950Z,7.45
2018-12-11T12:36:40.930Z,7.52
2018-12-11T12:37:40.942Z,7.55
2018-12-11T12:38:40.910Z,7.60
2018-12-11T12:39:40.898Z,7.63
2018-12-11T12:40:40.886Z,7.60
2018-12-11T12:41:40.874Z,7.53
2018-12-11T12:42:40.866Z,7.60
2018-12-11T12:43:40.870Z,7.58
2018-12-11T12:44:40.840Z,7.63
2018-12-11T12:45:40.830Z,7.75
2018-12-11T12:46:40.818Z,7.78
2018-12-11T12:47:40.808Z,7.71
2018-12-11T12:48:40.817Z,7.67
2018-12-11T12:49:40.783Z,7.74
2018-12-11T12:50:40.772Z,7.66
2018-12-11T12:51:40.760Z,7.74
2018-12-11T12:52:40.876Z,7.82
2018-12-11T12:53:40.763Z,7.78
2018-12-11T12:54:40.726Z,7.85
2018-12-11T12:55:40.718Z,7.82
2018-12-11T12:56:40.703Z,7.75
2018-12-11T12:57:40.693Z,7.60
2018-12-11T12:58:40.680Z,7.72
2018-12-11T12:59:40.690Z,7.71
2018-12-11T13:00:40.658Z,7.69
2018-12-11T13:01:40.647Z,7.66
2018-12-11T13:02:40.636Z,7.67
2018-12-11T13:03:40.624Z,7.63
2018-12-11T13:04:40.630Z,7.53
2018-12-11T13:05:40.603Z,7.63
2018-12-11T13:06:40.588Z,7.67
2018-12-11T13:07:40.578Z,7.58
2018-12-11T13:08:40.567Z,7.63
2018-12-11T13:09:40.580Z,7.62
2018-12-11T13:10:40.551Z,7.60
2018-12-11T13:11:40.531Z,7.67
2018-12-11T13:12:40.521Z,7.59
2018-12-11T13:13:40.513Z,7.67
2018-12-11T13:14:40.499Z,7.56
2018-12-11T13:15:40.511Z,7.56
2018-12-11T13:16:40.476Z,7.62
2018-12-11T13:17:40.463Z,7.72
2018-12-11T13:18:40.455Z,7.75
2018-12-11T13:19:40.438Z,7.59